sensor_id;sensor_type;location;lat;lon;timestamp;P1;durP1;ratioP1;P2;durP2;ratioP2
41693;SDS011;27377;50.666;9.150;2023-09-19T00:00:45;4.00;;;1.20;;
41693;SDS011;27377;50.666;9.150;2023-09-19T00:03:12;4.07;;;1.50;;
41693;SDS011;27377;50.666;9.150;2023-09-19T00:05:38;3.57;;;1.30;;
41693;SDS011;27377;50.666;9.150;2023-09-19T00:08:04;3.53;;;1.23;;
41693;SDS011;27377;50.666;9.150;2023-09-19T00:10:31;3.60;;;1.40;;
41693;SDS011;27377;50.666;9.150;2023-09-19T00:13:00;3.38;;;1.35;;
41693;SDS011;27377;50.666;9.150;2023-09-19T00:15:30;4.15;;;1.50;;
41693;SDS011;27377;50.666;9.150;2023-09-19T00:18:04;5.05;;;1.65;;
41693;SDS011;27377;50.666;9.150;2023-09-19T00:21:05;3.63;;;1.40;;
41693;SDS011;27377;50.666;9.150;2023-09-19T00:23:32;3.13;;;1.57;;
41693;SDS011;27377;50.666;9.150;2023-09-19T00:25:58;2.88;;;1.40;;
41693;SDS011;27377;50.666;9.150;2023-09-19T00:28:25;4.00;;;1.50;;
41693;SDS011;27377;50.666;9.150;2023-09-19T00:30:51;3.00;;;1.50;;
41693;SDS011;27377;50.666;9.150;2023-09-19T00:33:21;3.25;;;1.42;;
41693;SDS011;27377;50.666;9.150;2023-09-19T00:35:54;4.05;;;1.50;;
41693;SDS011;27377;50.666;9.150;2023-09-19T00:38:21;3.53;;;1.50;;
41693;SDS011;27377;50.666;9.150;2023-09-19T00:40:50;2.43;;;1.40;;
41693;SDS011;27377;50.666;9.150;2023-09-19T00:43:51;3.20;;;1.55;;
41693;SDS011;27377;50.666;9.150;2023-09-19T00:46:17;4.50;;;1.70;;
41693;SDS011;27377;50.666;9.150;2023-09-19T00:48:42;3.57;;;1.57;;
41693;SDS011;27377;50.666;9.150;2023-09-19T00:51:08;4.97;;;1.60;;
41693;SDS011;27377;50.666;9.150;2023-09-19T00:53:35;3.87;;;1.60;;
41693;SDS011;27377;50.666;9.150;2023-09-19T00:56:02;4.68;;;1.67;;
41693;SDS011;27377;50.666;9.150;2023-09-19T00:58:32;3.78;;;1.50;;
41693;SDS011;27377;50.666;9.150;2023-09-19T01:01:00;4.07;;;1.55;;
41693;SDS011;27377;50.666;9.150;2023-09-19T01:03:28;2.95;;;1.52;;
41693;SDS011;27377;50.666;9.150;2023-09-19T01:05:53;3.72;;;1.50;;
41693;SDS011;27377;50.666;9.150;2023-09-19T01:08:19;3.58;;;1.48;;
41693;SDS011;27377;50.666;9.150;2023-09-19T01:10:48;3.20;;;1.60;;
41693;SDS011;27377;50.666;9.150;2023-09-19T01:32:19;4.60;;;2.00;;
41693;SDS011;27377;50.666;9.150;2023-09-19T01:37:12;4.35;;;1.83;;
41693;SDS011;27377;50.666;9.150;2023-09-19T01:39:40;4.05;;;1.70;;
41693;SDS011;27377;50.666;9.150;2023-09-19T01:51:08;3.30;;;1.67;;
41693;SDS011;27377;50.666;9.150;2023-09-19T01:54:16;4.18;;;1.65;;
41693;SDS011;27377;50.666;9.150;2023-09-19T01:59:42;5.25;;;1.88;;
41693;SDS011;27377;50.666;9.150;2023-09-19T02:02:13;4.90;;;1.75;;
41693;SDS011;27377;50.666;9.150;2023-09-19T02:04:42;3.90;;;1.90;;
41693;SDS011;27377;50.666;9.150;2023-09-19T02:07:08;5.30;;;1.90;;
41693;SDS011;27377;50.666;9.150;2023-09-19T02:09:34;3.73;;;1.47;;
41693;SDS011;27377;50.666;9.150;2023-09-19T02:12:15;5.70;;;1.90;;
41693;SDS011;27377;50.666;9.150;2023-09-19T02:14:54;3.80;;;1.52;;
41693;SDS011;27377;50.666;9.150;2023-09-19T02:17:22;4.78;;;1.73;;
41693;SDS011;27377;50.666;9.150;2023-09-19T02:20:00;4.90;;;1.77;;
41693;SDS011;27377;50.666;9.150;2023-09-19T02:23:10;5.28;;;1.70;;
41693;SDS011;27377;50.666;9.150;2023-09-19T02:25:38;6.90;;;2.03;;
41693;SDS011;27377;50.666;9.150;2023-09-19T02:28:05;4.47;;;1.67;;
41693;SDS011;27377;50.666;9.150;2023-09-19T02:30:50;4.15;;;1.65;;
41693;SDS011;27377;50.666;9.150;2023-09-19T02:42:48;3.88;;;1.60;;
41693;SDS011;27377;50.666;9.150;2023-09-19T02:46:38;3.78;;;1.58;;
41693;SDS011;27377;50.666;9.150;2023-09-19T02:58:24;5.43;;;1.60;;
41693;SDS011;27377;50.666;9.150;2023-09-19T05:18:02;5.23;;;1.50;;
41693;SDS011;27377;50.666;9.150;2023-09-19T05:21:39;5.80;;;1.80;;
41693;SDS011;27377;50.666;9.150;2023-09-19T05:24:21;5.93;;;1.70;;
41693;SDS011;27377;50.666;9.150;2023-09-19T05:27:47;7.47;;;1.85;;
41693;SDS011;27377;50.666;9.150;2023-09-19T05:30:20;9.38;;;2.03;;
41693;SDS011;27377;50.666;9.150;2023-09-19T07:45:39;7.35;;;1.80;;
41693;SDS011;27377;50.666;9.150;2023-09-19T07:49:47;6.35;;;1.90;;
41693;SDS011;27377;50.666;9.150;2023-09-19T10:15:38;7.95;;;2.03;;
41693;SDS011;27377;50.666;9.150;2023-09-19T10:36:24;7.35;;;2.30;;
41693;SDS011;27377;50.666;9.150;2023-09-19T10:39:46;7.70;;;2.17;;
41693;SDS011;27377;50.666;9.150;2023-09-19T10:43:51;9.05;;;2.30;;
41693;SDS011;27377;50.666;9.150;2023-09-19T11:47:19;6.93;;;2.25;;
41693;SDS011;27377;50.666;9.150;2023-09-19T11:49:47;7.63;;;2.20;;
41693;SDS011;27377;50.666;9.150;2023-09-19T11:52:33;7.30;;;2.30;;
41693;SDS011;27377;50.666;9.150;2023-09-19T11:57:48;8.20;;;2.25;;
41693;SDS011;27377;50.666;9.150;2023-09-19T12:03:10;7.28;;;2.20;;
41693;SDS011;27377;50.666;9.150;2023-09-19T12:05:39;5.97;;;2.00;;
41693;SDS011;27377;50.666;9.150;2023-09-19T12:08:04;8.07;;;2.23;;
41693;SDS011;27377;50.666;9.150;2023-09-19T12:13:09;7.88;;;2.40;;
41693;SDS011;27377;50.666;9.150;2023-09-19T12:19:19;6.80;;;2.13;;
41693;SDS011;27377;50.666;9.150;2023-09-19T12:25:40;8.50;;;2.33;;
41693;SDS011;27377;50.666;9.150;2023-09-19T12:31:59;7.23;;;2.30;;
41693;SDS011;27377;50.666;9.150;2023-09-19T12:37:25;6.30;;;2.38;;
41693;SDS011;27377;50.666;9.150;2023-09-19T12:40:36;7.88;;;2.40;;
41693;SDS011;27377;50.666;9.150;2023-09-19T12:43:03;8.15;;;2.45;;
41693;SDS011;27377;50.666;9.150;2023-09-19T12:55:59;8.13;;;2.33;;
41693;SDS011;27377;50.666;9.150;2023-09-19T12:58:25;8.02;;;2.60;;
41693;SDS011;27377;50.666;9.150;2023-09-19T13:00:52;9.23;;;2.55;;
41693;SDS011;27377;50.666;9.150;2023-09-19T13:06:39;10.37;;;3.13;;
41693;SDS011;27377;50.666;9.150;2023-09-19T13:09:08;10.35;;;2.60;;
41693;SDS011;27377;50.666;9.150;2023-09-19T13:16:14;9.93;;;2.77;;
41693;SDS011;27377;50.666;9.150;2023-09-19T13:19:01;8.43;;;2.47;;
41693;SDS011;27377;50.666;9.150;2023-09-19T13:21:38;7.55;;;2.50;;
41693;SDS011;27377;50.666;9.150;2023-09-19T13:35:38;8.80;;;2.60;;
41693;SDS011;27377;50.666;9.150;2023-09-19T13:38:58;8.35;;;2.42;;
41693;SDS011;27377;50.666;9.150;2023-09-19T13:41:25;8.18;;;2.78;;
41693;SDS011;27377;50.666;9.150;2023-09-19T13:43:51;8.18;;;2.47;;
41693;SDS011;27377;50.666;9.150;2023-09-19T13:46:17;9.18;;;2.63;;
41693;SDS011;27377;50.666;9.150;2023-09-19T13:48:50;7.90;;;2.50;;
41693;SDS011;27377;50.666;9.150;2023-09-19T13:51:19;6.45;;;2.20;;
41693;SDS011;27377;50.666;9.150;2023-09-19T13:53:47;7.53;;;2.55;;
41693;SDS011;27377;50.666;9.150;2023-09-19T13:56:13;6.90;;;2.20;;
41693;SDS011;27377;50.666;9.150;2023-09-19T13:58:39;9.57;;;2.50;;
41693;SDS011;27377;50.666;9.150;2023-09-19T14:01:07;7.25;;;2.25;;
41693;SDS011;27377;50.666;9.150;2023-09-19T14:03:41;8.90;;;2.63;;
41693;SDS011;27377;50.666;9.150;2023-09-19T14:06:14;8.00;;;2.40;;
41693;SDS011;27377;50.666;9.150;2023-09-19T14:08:40;9.00;;;2.30;;
41693;SDS011;27377;50.666;9.150;2023-09-19T14:11:06;9.60;;;2.67;;
41693;SDS011;27377;50.666;9.150;2023-09-19T14:13:33;6.47;;;2.17;;
41693;SDS011;27377;50.666;9.150;2023-09-19T14:16:10;9.95;;;2.50;;
41693;SDS011;27377;50.666;9.150;2023-09-19T14:18:41;10.80;;;2.83;;
41693;SDS011;27377;50.666;9.150;2023-09-19T14:21:07;8.13;;;2.47;;
41693;SDS011;27377;50.666;9.150;2023-09-19T14:23:37;7.00;;;2.22;;
41693;SDS011;27377;50.666;9.150;2023-09-19T14:26:03;6.63;;;2.37;;
41693;SDS011;27377;50.666;9.150;2023-09-19T14:28:33;7.43;;;2.28;;
41693;SDS011;27377;50.666;9.150;2023-09-19T14:31:05;5.93;;;2.40;;
41693;SDS011;27377;50.666;9.150;2023-09-19T14:33:32;8.47;;;2.40;;
41693;SDS011;27377;50.666;9.150;2023-09-19T14:35:57;9.20;;;2.30;;
41693;SDS011;27377;50.666;9.150;2023-09-19T14:38:23;9.38;;;2.38;;
41693;SDS011;27377;50.666;9.150;2023-09-19T14:40:58;7.57;;;2.20;;
41693;SDS011;27377;50.666;9.150;2023-09-19T14:43:27;7.90;;;2.33;;
41693;SDS011;27377;50.666;9.150;2023-09-19T14:46:04;7.75;;;2.08;;
41693;SDS011;27377;50.666;9.150;2023-09-19T14:48:35;6.90;;;2.10;;
41693;SDS011;27377;50.666;9.150;2023-09-19T14:51:02;7.80;;;2.10;;
41693;SDS011;27377;50.666;9.150;2023-09-19T14:53:34;7.23;;;2.17;;
41693;SDS011;27377;50.666;9.150;2023-09-19T14:56:04;6.88;;;2.10;;
41693;SDS011;27377;50.666;9.150;2023-09-19T14:58:32;7.30;;;2.33;;
41693;SDS011;27377;50.666;9.150;2023-09-19T15:03:43;7.97;;;2.23;;
41693;SDS011;27377;50.666;9.150;2023-09-19T15:06:10;6.35;;;1.88;;
41693;SDS011;27377;50.666;9.150;2023-09-19T15:08:40;5.80;;;1.80;;
41693;SDS011;27377;50.666;9.150;2023-09-19T15:11:12;5.47;;;2.13;;
41693;SDS011;27377;50.666;9.150;2023-09-19T15:13:42;6.60;;;1.77;;
41693;SDS011;27377;50.666;9.150;2023-09-19T15:16:09;6.83;;;2.00;;
41693;SDS011;27377;50.666;9.150;2023-09-19T15:18:38;7.40;;;1.92;;
41693;SDS011;27377;50.666;9.150;2023-09-19T15:21:08;9.13;;;2.30;;
41693;SDS011;27377;50.666;9.150;2023-09-19T15:23:35;7.13;;;2.03;;
41693;SDS011;27377;50.666;9.150;2023-09-19T15:26:21;6.78;;;1.92;;
41693;SDS011;27377;50.666;9.150;2023-09-19T15:28:48;6.85;;;1.98;;
41693;SDS011;27377;50.666;9.150;2023-09-19T15:31:14;6.82;;;2.08;;
41693;SDS011;27377;50.666;9.150;2023-09-19T15:33:40;7.30;;;2.50;;
41693;SDS011;27377;50.666;9.150;2023-09-19T15:36:06;6.65;;;1.85;;
41693;SDS011;27377;50.666;9.150;2023-09-19T15:41:24;7.47;;;2.10;;
41693;SDS011;27377;50.666;9.150;2023-09-19T15:43:56;7.05;;;2.00;;
41693;SDS011;27377;50.666;9.150;2023-09-19T15:46:24;7.43;;;1.80;;
41693;SDS011;27377;50.666;9.150;2023-09-19T15:48:52;8.18;;;2.30;;
41693;SDS011;27377;50.666;9.150;2023-09-19T15:51:18;7.25;;;2.17;;
41693;SDS011;27377;50.666;9.150;2023-09-19T15:53:50;6.55;;;2.00;;
41693;SDS011;27377;50.666;9.150;2023-09-19T15:56:18;7.85;;;2.08;;
41693;SDS011;27377;50.666;9.150;2023-09-19T15:58:48;9.98;;;2.25;;
41693;SDS011;27377;50.666;9.150;2023-09-19T16:01:15;8.87;;;2.23;;
41693;SDS011;27377;50.666;9.150;2023-09-19T16:03:51;8.40;;;2.30;;
41693;SDS011;27377;50.666;9.150;2023-09-19T16:06:22;5.55;;;1.80;;
41693;SDS011;27377;50.666;9.150;2023-09-19T16:08:50;6.05;;;2.00;;
41693;SDS011;27377;50.666;9.150;2023-09-19T16:11:17;6.00;;;1.85;;
41693;SDS011;27377;50.666;9.150;2023-09-19T16:13:46;8.00;;;2.00;;
41693;SDS011;27377;50.666;9.150;2023-09-19T16:16:13;5.03;;;1.63;;
41693;SDS011;27377;50.666;9.150;2023-09-19T16:18:47;4.80;;;1.60;;
41693;SDS011;27377;50.666;9.150;2023-09-19T16:21:14;5.80;;;1.75;;
41693;SDS011;27377;50.666;9.150;2023-09-19T16:23:44;5.50;;;1.77;;
41693;SDS011;27377;50.666;9.150;2023-09-19T16:26:10;7.20;;;1.73;;
41693;SDS011;27377;50.666;9.150;2023-09-19T16:28:38;5.68;;;1.77;;
41693;SDS011;27377;50.666;9.150;2023-09-19T16:31:07;5.18;;;1.80;;
41693;SDS011;27377;50.666;9.150;2023-09-19T16:33:35;7.07;;;1.73;;
41693;SDS011;27377;50.666;9.150;2023-09-19T16:36:02;5.38;;;1.60;;
41693;SDS011;27377;50.666;9.150;2023-09-19T16:38:32;5.57;;;1.65;;
41693;SDS011;27377;50.666;9.150;2023-09-19T16:40:58;6.20;;;1.70;;
41693;SDS011;27377;50.666;9.150;2023-09-19T16:43:24;5.97;;;1.67;;
41693;SDS011;27377;50.666;9.150;2023-09-19T16:45:51;6.60;;;1.75;;
41693;SDS011;27377;50.666;9.150;2023-09-19T16:48:21;4.90;;;1.60;;
41693;SDS011;27377;50.666;9.150;2023-09-19T16:50:48;4.78;;;1.67;;
41693;SDS011;27377;50.666;9.150;2023-09-19T16:53:15;5.57;;;1.73;;
41693;SDS011;27377;50.666;9.150;2023-09-19T16:55:42;5.95;;;1.75;;
41693;SDS011;27377;50.666;9.150;2023-09-19T16:58:08;5.88;;;1.73;;
41693;SDS011;27377;50.666;9.150;2023-09-19T17:00:35;5.55;;;1.60;;
41693;SDS011;27377;50.666;9.150;2023-09-19T17:03:01;5.22;;;1.52;;
41693;SDS011;27377;50.666;9.150;2023-09-19T17:05:34;5.60;;;1.50;;
41693;SDS011;27377;50.666;9.150;2023-09-19T17:08:04;6.03;;;1.60;;
41693;SDS011;27377;50.666;9.150;2023-09-19T17:10:34;4.28;;;1.52;;
41693;SDS011;27377;50.666;9.150;2023-09-19T17:13:00;4.20;;;1.50;;
41693;SDS011;27377;50.666;9.150;2023-09-19T17:15:27;4.72;;;1.67;;
41693;SDS011;27377;50.666;9.150;2023-09-19T17:17:52;7.23;;;1.70;;
41693;SDS011;27377;50.666;9.150;2023-09-19T17:20:19;5.13;;;1.48;;
41693;SDS011;27377;50.666;9.150;2023-09-19T17:22:45;6.10;;;1.73;;
41693;SDS011;27377;50.666;9.150;2023-09-19T17:25:10;5.53;;;1.50;;
41693;SDS011;27377;50.666;9.150;2023-09-19T17:27:37;5.60;;;1.70;;
41693;SDS011;27377;50.666;9.150;2023-09-19T17:30:04;5.85;;;1.70;;
41693;SDS011;27377;50.666;9.150;2023-09-19T17:32:34;6.72;;;1.63;;
41693;SDS011;27377;50.666;9.150;2023-09-19T17:35:01;6.63;;;1.60;;
41693;SDS011;27377;50.666;9.150;2023-09-19T17:37:28;6.07;;;1.33;;
41693;SDS011;27377;50.666;9.150;2023-09-19T17:39:54;5.13;;;1.50;;
41693;SDS011;27377;50.666;9.150;2023-09-19T17:42:19;5.10;;;1.50;;
41693;SDS011;27377;50.666;9.150;2023-09-19T17:44:45;7.33;;;1.83;;
41693;SDS011;27377;50.666;9.150;2023-09-19T17:47:11;5.35;;;1.60;;
41693;SDS011;27377;50.666;9.150;2023-09-19T17:49:36;4.75;;;1.50;;
41693;SDS011;27377;50.666;9.150;2023-09-19T17:52:02;5.75;;;1.50;;
41693;SDS011;27377;50.666;9.150;2023-09-19T17:54:29;5.90;;;1.63;;
41693;SDS011;27377;50.666;9.150;2023-09-19T17:56:56;6.10;;;1.65;;
41693;SDS011;27377;50.666;9.150;2023-09-19T17:59:21;4.22;;;1.33;;
41693;SDS011;27377;50.666;9.150;2023-09-19T18:01:48;4.03;;;1.40;;
41693;SDS011;27377;50.666;9.150;2023-09-19T18:04:16;3.47;;;1.50;;
41693;SDS011;27377;50.666;9.150;2023-09-19T18:06:43;6.60;;;1.77;;
41693;SDS011;27377;50.666;9.150;2023-09-19T18:11:50;4.28;;;1.40;;
41693;SDS011;27377;50.666;9.150;2023-09-19T18:14:15;5.82;;;1.60;;
41693;SDS011;27377;50.666;9.150;2023-09-19T18:26:02;4.13;;;1.52;;
41693;SDS011;27377;50.666;9.150;2023-09-19T18:33:49;5.45;;;1.77;;
41693;SDS011;27377;50.666;9.150;2023-09-19T18:38:52;5.90;;;1.60;;
41693;SDS011;27377;50.666;9.150;2023-09-19T18:41:18;5.07;;;1.30;;
41693;SDS011;27377;50.666;9.150;2023-09-19T18:43:45;5.53;;;1.70;;
41693;SDS011;27377;50.666;9.150;2023-09-19T19:29:33;4.87;;;1.20;;
41693;SDS011;27377;50.666;9.150;2023-09-19T19:48:30;5.00;;;1.42;;
41693;SDS011;27377;50.666;9.150;2023-09-19T20:39:00;3.95;;;1.23;;
41693;SDS011;27377;50.666;9.150;2023-09-19T20:41:35;4.43;;;1.40;;
41693;SDS011;27377;50.666;9.150;2023-09-19T20:44:27;7.13;;;1.50;;
41693;SDS011;27377;50.666;9.150;2023-09-19T20:47:10;4.47;;;1.30;;
41693;SDS011;27377;50.666;9.150;2023-09-19T20:49:47;3.67;;;1.20;;
41693;SDS011;27377;50.666;9.150;2023-09-19T20:52:26;3.08;;;1.20;;
41693;SDS011;27377;50.666;9.150;2023-09-19T20:54:56;6.15;;;1.60;;
41693;SDS011;27377;50.666;9.150;2023-09-19T20:57:38;3.67;;;1.40;;
41693;SDS011;27377;50.666;9.150;2023-09-19T21:00:12;4.22;;;1.40;;
41693;SDS011;27377;50.666;9.150;2023-09-19T21:02:57;3.80;;;1.33;;
41693;SDS011;27377;50.666;9.150;2023-09-19T21:06:04;5.88;;;1.48;;
41693;SDS011;27377;50.666;9.150;2023-09-19T21:08:54;3.50;;;1.40;;
41693;SDS011;27377;50.666;9.150;2023-09-19T21:11:43;3.95;;;1.25;;
41693;SDS011;27377;50.666;9.150;2023-09-19T21:14:31;4.00;;;1.17;;
41693;SDS011;27377;50.666;9.150;2023-09-19T21:17:43;3.80;;;1.40;;
41693;SDS011;27377;50.666;9.150;2023-09-19T21:20:22;3.95;;;1.33;;
41693;SDS011;27377;50.666;9.150;2023-09-19T21:23:13;3.78;;;1.23;;
41693;SDS011;27377;50.666;9.150;2023-09-19T21:25:55;4.57;;;1.50;;
41693;SDS011;27377;50.666;9.150;2023-09-19T21:28:38;2.80;;;1.07;;
41693;SDS011;27377;50.666;9.150;2023-09-19T21:31:42;5.25;;;1.00;;
41693;SDS011;27377;50.666;9.150;2023-09-19T21:34:26;3.60;;;1.20;;
41693;SDS011;27377;50.666;9.150;2023-09-19T21:37:25;4.38;;;1.35;;
41693;SDS011;27377;50.666;9.150;2023-09-19T21:40:07;3.97;;;1.35;;
41693;SDS011;27377;50.666;9.150;2023-09-19T21:43:23;5.38;;;1.20;;
41693;SDS011;27377;50.666;9.150;2023-09-19T21:46:17;4.30;;;1.35;;
41693;SDS011;27377;50.666;9.150;2023-09-19T21:49:18;3.83;;;1.23;;
41693;SDS011;27377;50.666;9.150;2023-09-19T21:52:43;3.17;;;1.30;;
41693;SDS011;27377;50.666;9.150;2023-09-19T21:59:09;4.68;;;1.42;;
41693;SDS011;27377;50.666;9.150;2023-09-19T22:01:44;4.82;;;1.30;;
41693;SDS011;27377;50.666;9.150;2023-09-19T22:04:16;2.72;;;1.20;;
41693;SDS011;27377;50.666;9.150;2023-09-19T22:09:29;4.53;;;1.30;;
41693;SDS011;27377;50.666;9.150;2023-09-19T22:11:55;3.70;;;1.40;;
41693;SDS011;27377;50.666;9.150;2023-09-19T22:14:49;3.80;;;1.40;;
41693;SDS011;27377;50.666;9.150;2023-09-19T22:18:21;5.60;;;1.30;;
41693;SDS011;27377;50.666;9.150;2023-09-19T22:20:52;3.92;;;1.23;;
41693;SDS011;27377;50.666;9.150;2023-09-19T22:23:58;4.53;;;1.40;;
41693;SDS011;27377;50.666;9.150;2023-09-19T22:34:18;4.40;;;1.30;;
41693;SDS011;27377;50.666;9.150;2023-09-19T22:44:55;4.85;;;1.42;;
41693;SDS011;27377;50.666;9.150;2023-09-19T22:52:04;5.10;;;1.20;;
41693;SDS011;27377;50.666;9.150;2023-09-19T23:03:12;6.10;;;1.40;;
41693;SDS011;27377;50.666;9.150;2023-09-19T23:16:57;4.07;;;1.10;;
41693;SDS011;27377;50.666;9.150;2023-09-19T23:20:29;3.10;;;1.33;;
41693;SDS011;27377;50.666;9.150;2023-09-19T23:24:03;4.07;;;1.30;;
41693;SDS011;27377;50.666;9.150;2023-09-19T23:34:24;5.03;;;1.50;;
41693;SDS011;27377;50.666;9.150;2023-09-19T23:36:58;3.38;;;1.10;;
41693;SDS011;27377;50.666;9.150;2023-09-19T23:39:33;3.75;;;1.33;;
41693;SDS011;27377;50.666;9.150;2023-09-19T23:42:13;3.03;;;1.10;;
41693;SDS011;27377;50.666;9.150;2023-09-19T23:45:04;3.15;;;1.20;;
41693;SDS011;27377;50.666;9.150;2023-09-19T23:51:19;3.30;;;1.13;;
41693;SDS011;27377;50.666;9.150;2023-09-19T23:54:03;4.63;;;1.17;;
41693;SDS011;27377;50.666;9.150;2023-09-19T23:56:46;4.47;;;1.40;;
41693;SDS011;27377;50.666;9.150;2023-09-19T23:59:20;4.13;;;1.20;;
